Terminal Aerodrome Forecast
Issued by NWS Binghamton, NY

Current Version | Previous Version | Text Only | Print | Product List | Glossary On
Versions: 1 2 3 4 5 6 7 8 9 10 11 12 13 14 15 16 17 18 19
357
FTUS41 KBGM 252324
TAFSYR
TAF
KSYR 252324Z 2600/2624 21008KT P6SM FEW030 SCT250
     FM261500 26010G16KT P6SM FEW200
     FM261900 27013G21KT P6SM SKC=

USA.gov is the U.S. government's official web portal to all federal, state and local government web resources and services.